Skip Navigation Links www.nws.noaa.gov 
NOAA logo - Click to go to the NOAA homepage National Weather Service   NWS logo - Click to go to the NWS homepage
NCEP Central Operations
Search 
   

Local forecast by
"City, St"

Search NCO
NCEP Home > NCEP Central Operations > Data Management and Quality Assessment Branch > Quality Assessment Project > Raob Data Manual Quality Control Reports > Mexican Raob Data Manual Quality Control Reports

Latest Mexican Raob Data Manual Quality Control Report Printer image icon. Printer Friendly Version

Latest Mexican Raob Data Manual Quality Control Report

Previous Mexican Raob Data Manual Quality Control Reports

                RAOB DATA MANUAL QUALITY CONTROL (QC) REPORT
                                  MEXICAN
                       From 20160701 through 20160731

 ___DATE___ HOUR REASN DETAILS...

76225/CUU
   20160719  12Z 10155 10155...fading signal
   20160731  12Z 10142 10142; Ground equip problem..

2 records found

76256/GYM
   20160701  12Z 10158 10158
   20160702  12Z 10148 10148
   20160704  12Z 10158 10158
   20160705  12Z 10158 10158
   20160706  12Z 10158 10158
   20160707  12Z 10158 10158.
   20160708  12Z 10158 10158.
   20160709  12Z 10158 10158.
   20160710  12Z 10158 10158.
   20160711  12Z 10158 10158...Flight equipment failure.
   20160713  12Z 10158 10158...Flight equipment failure.
   20160714  12Z 10158 10158...Flight equipment failure.
   20160715  12Z 10158 10158
   20160716  12Z 10158 10158
   20160717  12Z 10158 10158
   20160718  12Z 10158 10158; Flight equip problem..
   20160719  12Z 10158 10158...flight equipment failure
   20160721  12Z SHORT Short to 547 mb
   20160727  12Z 10158 10158...FLIGHT EQUIPMENT FAILURE.

19 records found

76405/LAP
   20160703  12Z DELET Purged all temps...too warm
   20160705  12Z DELET Purged all hgts/temps...high hgts...portions low temps
   20160706  12Z DELET Purged all hgts...high
   20160718  12Z 10158 10158; Flight equip problem..
   20160724  12Z 10158 10158...Flight equipment failure
   20160725  12Z 10158 10158...flight equipment failure
   20160726  12Z 10158 10158...FLIGHT EQUIPMENT FAILURE.

7 records found

76458/MZT
   20160701  00Z 10158 10158...FLIGHT EQUIPMENT FAILURE.
   20160702  00Z 10158 10158...FLIGHT EQUIPMENT FAILURE.
   20160704  00Z 10158 10158; Flight equip problem..
   20160704  12Z DELET Purged all hgts/temps...portions high/warm
   20160705  00Z 10158 10158...Flight equipment failure
   20160706  00Z 10158 10158...Flight equipment failure
   20160707  00Z 10158 10158...Flight equipment failure
   20160708  00Z 10158 10158
   20160709  00Z 10158 10158
   20160710  00Z 10158 10158
   20160711  00Z 10158 10158
   20160712  00Z 10158 10158...Flight equipment failure
   20160713  00Z 10158 10158...Flight equipment failure
   20160714  00Z 10158 10158...Flight equipment failure
   20160715  00Z 10158 10158...Flight equipment failure
   20160716  00Z 10158 10158...Flight equipment failure
   20160717  00Z 10158 10158...FLIGHT EQUIPMENT FAILURE.
   20160718  00Z 10158 10158...FLIGHT EQUIPMENT FAILURE.
   20160719  00Z 10158 10158
   20160720  00Z 10158 10158
   20160721  00Z 10158 10158
   20160722  00Z 10158 10158; Flight equip problem..
   20160723  00Z 10158 10158; Flight equip problems..
   20160723  12Z 10158 10158...Flight equipment failure
   20160724  00Z 10158 10158
   20160725  00Z 10158 10158
   20160726  00Z 10158 10158
   20160727  00Z 10158 10158
   20160728  00Z 10158 10158
   20160729  00Z 10158 10158; Flight equip problems..
   20160730  00Z 10158 10158...Flight equipment failure
   20160731  00Z 10158 10158...Flight equipment failure

32 records found

76526/ZAC
   20160705  12Z DELET Purged all hgts/temps...high/warm
   20160706  12Z DELET Purged all hgts/temps...high/warm
   20160715  12Z DELET Purged all hgts/temps...high and warm
   20160719  12Z DELET Purged temp/rh 717-699 mb...super-adiabatic
   20160722  12Z DELET Purged temps/moisture 780-778 mb, 701-699 mb, 500-499 mb...
                       super-adiabatic lapse rate

5 records found

76595/CUN
   20160724  12Z DELET Purged hgts/temps 200 mb and up...portions high/warm

1 record found

76654/MZL
   20160701  00Z 10158 10158...FLIGHT EQUIPMENT FAILURE.
   20160702  00Z 10158 10158...FLIGHT EQUIPMENT FAILURE.
   20160703  12Z 10142 10142
   20160704  00Z 10158 10158; Flight equip problem..
   20160705  00Z 10158 10158...Flight equipment failure
   20160705  12Z 10145 10145
   20160707  00Z 10158 10158...Flight equipment failure
   20160708  00Z 10158 10158
   20160709  00Z 10158 10158
   20160710  00Z 10158 10158
   20160711  12Z DELET Purged heights/temps/moisture 940mb and up...high/warm.
   20160712  00Z 10158 10158...Flight equipment failure
   20160713  00Z 10158 10158...Flight equipment failure
   20160714  00Z 10158 10158...Flight equipment failure
   20160714  12Z DELET Purged all heights/temps/moisture...high and warm.
   20160715  00Z 10158 10158...Flight equipment failure
   20160717  00Z 10158 10158...FLIGHT EQUIPMENT FAILURE.
   20160718  00Z 10158 10158...FLIGHT EQUIPMENT FAILURE.
   20160719  00Z 10158 10158
   20160720  00Z 10158 10158
   20160721  00Z 10158 10158
   20160722  00Z 10158 10158; Flight equip problem..
   20160722  12Z DELET Purged hgts/temps...high/warm
   20160724  00Z 10158 10158
   20160727  00Z 10158 10158
   20160728  00Z 10158 10158
   20160729  00Z 10158 10158; Flight equip problems..
   20160730  00Z 10158 10158...Flight equipment failure
   20160730  12Z DELET Purge all hts/temps/humidity.. Very low then high and cold...
   20160731  12Z DELET Purge hts/temps/humidity 850mb up high and warm..

30 records found

76679/MEX
   20160704  12Z DELET Purged all hgts/temps...portions high/warm
   20160705  12Z DELET Purged all hgts/temps...high/warm
   20160717  12Z DELET Purged temps 774-673mb...too warm
   20160724  00Z DELET Purged all hgts/temps...portions high/warm
   20160724  12Z DELET Purged all hgts/temps...portions high/warm

5 records found

76692/HYY
   20160704  00Z 10158 10158; Flight equip problem..
   20160705  00Z 10158 10158...Flight equipment failure
   20160705  12Z SHORT Short to 619mb
   20160706  00Z EFAIL 1058...Flight equipment failure
   20160707  00Z 10158 10158...Flight equipment failure
   20160708  00Z 10158 10158
   20160709  00Z 10158 10158
   20160710  00Z 10158 10158
   20160711  00Z 10158 10158
   20160712  00Z 10158 10158...Flight equipment failure
   20160713  00Z 10158 10158...Flight equipment failure
   20160714  00Z 10158 10158...Flight equipment failure
   20160714  12Z DELET Purged temps/moisture 400-323mb...super-adiabatic lapse rates
   20160715  00Z 10158 10158...Flight equipment failure
   20160716  00Z 10158 10158...Flight equipment failure
   20160717  00Z 10158 10158...FLIGHT EQUIPMENT FAILURE.
   20160718  00Z 10158 10158...FLIGHT EQUIPMENT FAILURE.
   20160719  00Z 10158 10158
   20160721  00Z 10158 10158
   20160722  00Z 10158 10158; Flight equip problem..
   20160723  00Z 10158 10158; Flight equip problems..
   20160724  00Z 10158 10158
   20160725  00Z 10158 10158
   20160726  00Z 10158 10158
   20160727  00Z 10158 10158
   20160728  00Z 10158 10158
   20160729  00Z 10158 10158; Flight equip problems..
   20160730  00Z 10158 10158...Flight equipment failure
   20160731  00Z 10158 10158...Flight equipment failure

29 records found

76743/VHA
   20160710  00Z 10158 10158
   20160714  00Z 10142 10142...Ground equipment failure

2 records found

76805/ACA
   20160704  12Z SHORT Short to 577mb
   20160710  12Z SHORT SHORT TO 577MB.
   20160730  12Z DELET Purge hts/temps/humidity 850mb up High and warm..

3 records found



SELECTED STATIONS WITH NO SDM QC:
  76394/MTY  76612/GDL  76644/MID  76903/TAP




This and related reports are available on the Web at . . .
http://www.nco.ncep.noaa.gov/sib/qap/raobqc/


  

NOAA/ National Weather Service
National Centers for Environmental Prediction
NCEP Central Operations
5830 University Research Court
College Park, MD 20740
NCO Web Team
Disclaimer Privacy Policy
Page last modified: Tuesday, 14-Sep-2004 17:34:26 UTC